sensor_id;sensor_type;location;lat;lon;timestamp;P1;durP1;ratioP1;P2;durP2;ratioP2
2362;SDS011;64265;51.664;7.626;2023-08-07T00:01:21;1.47;;;1.33;;
2362;SDS011;64265;51.664;7.626;2023-08-07T00:03:48;1.30;;;1.07;;
2362;SDS011;64265;51.664;7.626;2023-08-07T00:06:15;1.30;;;1.03;;
2362;SDS011;64265;51.664;7.626;2023-08-07T00:08:43;1.37;;;1.07;;
2362;SDS011;64265;51.664;7.626;2023-08-07T00:11:10;1.40;;;1.10;;
2362;SDS011;64265;51.664;7.626;2023-08-07T00:13:37;1.10;;;1.00;;
2362;SDS011;64265;51.664;7.626;2023-08-07T00:16:04;2.37;;;1.20;;
2362;SDS011;64265;51.664;7.626;2023-08-07T00:18:30;1.30;;;1.10;;
2362;SDS011;64265;51.664;7.626;2023-08-07T00:20:57;1.73;;;1.47;;
2362;SDS011;64265;51.664;7.626;2023-08-07T00:23:24;1.40;;;1.10;;
2362;SDS011;64265;51.664;7.626;2023-08-07T00:25:53;2.10;;;1.40;;
2362;SDS011;64265;51.664;7.626;2023-08-07T00:28:19;1.40;;;1.20;;
2362;SDS011;64265;51.664;7.626;2023-08-07T00:30:46;1.20;;;1.10;;
2362;SDS011;64265;51.664;7.626;2023-08-07T00:33:13;1.53;;;1.23;;
2362;SDS011;64265;51.664;7.626;2023-08-07T00:35:39;1.40;;;1.30;;
2362;SDS011;64265;51.664;7.626;2023-08-07T00:38:06;1.53;;;1.10;;
2362;SDS011;64265;51.664;7.626;2023-08-07T00:40:36;2.17;;;1.13;;
2362;SDS011;64265;51.664;7.626;2023-08-07T00:43:05;1.13;;;1.00;;
2362;SDS011;64265;51.664;7.626;2023-08-07T00:45:32;1.33;;;1.10;;
2362;SDS011;64265;51.664;7.626;2023-08-07T00:48:02;2.70;;;1.10;;
2362;SDS011;64265;51.664;7.626;2023-08-07T00:50:30;1.90;;;1.10;;
2362;SDS011;64265;51.664;7.626;2023-08-07T00:52:56;1.97;;;1.10;;
2362;SDS011;64265;51.664;7.626;2023-08-07T00:55:23;1.30;;;1.20;;
2362;SDS011;64265;51.664;7.626;2023-08-07T00:57:50;2.63;;;1.50;;
2362;SDS011;64265;51.664;7.626;2023-08-07T01:00:19;2.40;;;1.60;;
2362;SDS011;64265;51.664;7.626;2023-08-07T01:02:46;1.27;;;1.10;;
2362;SDS011;64265;51.664;7.626;2023-08-07T01:05:16;1.13;;;0.97;;
2362;SDS011;64265;51.664;7.626;2023-08-07T01:07:43;1.33;;;1.20;;
2362;SDS011;64265;51.664;7.626;2023-08-07T01:10:09;1.20;;;1.10;;
2362;SDS011;64265;51.664;7.626;2023-08-07T01:12:42;1.83;;;1.10;;
2362;SDS011;64265;51.664;7.626;2023-08-07T01:15:14;1.43;;;1.20;;
2362;SDS011;64265;51.664;7.626;2023-08-07T01:17:47;1.40;;;1.00;;
2362;SDS011;64265;51.664;7.626;2023-08-07T01:20:15;1.30;;;1.10;;
2362;SDS011;64265;51.664;7.626;2023-08-07T01:22:44;1.73;;;1.53;;
2362;SDS011;64265;51.664;7.626;2023-08-07T01:25:10;2.57;;;1.30;;
2362;SDS011;64265;51.664;7.626;2023-08-07T01:27:40;1.30;;;1.20;;
2362;SDS011;64265;51.664;7.626;2023-08-07T01:30:15;1.60;;;1.10;;
2362;SDS011;64265;51.664;7.626;2023-08-07T01:32:50;1.13;;;1.03;;
2362;SDS011;64265;51.664;7.626;2023-08-07T01:35:23;1.70;;;1.20;;
2362;SDS011;64265;51.664;7.626;2023-08-07T01:37:56;1.00;;;0.80;;
2362;SDS011;64265;51.664;7.626;2023-08-07T01:40:24;1.20;;;0.90;;
2362;SDS011;64265;51.664;7.626;2023-08-07T01:42:53;1.30;;;1.07;;
2362;SDS011;64265;51.664;7.626;2023-08-07T01:45:23;1.40;;;1.10;;
2362;SDS011;64265;51.664;7.626;2023-08-07T01:47:50;1.87;;;1.53;;
2362;SDS011;64265;51.664;7.626;2023-08-07T01:50:17;1.10;;;1.00;;
2362;SDS011;64265;51.664;7.626;2023-08-07T01:52:44;1.30;;;1.10;;
2362;SDS011;64265;51.664;7.626;2023-08-07T01:55:12;1.00;;;0.80;;
2362;SDS011;64265;51.664;7.626;2023-08-07T01:57:39;1.37;;;1.00;;
2362;SDS011;64265;51.664;7.626;2023-08-07T02:00:06;1.87;;;1.20;;
2362;SDS011;64265;51.664;7.626;2023-08-07T02:02:34;1.30;;;1.10;;
2362;SDS011;64265;51.664;7.626;2023-08-07T02:05:01;1.30;;;1.00;;
2362;SDS011;64265;51.664;7.626;2023-08-07T02:07:28;1.47;;;1.37;;
2362;SDS011;64265;51.664;7.626;2023-08-07T02:09:54;1.73;;;1.37;;
2362;SDS011;64265;51.664;7.626;2023-08-07T02:12:22;1.30;;;1.10;;
2362;SDS011;64265;51.664;7.626;2023-08-07T02:14:49;1.27;;;1.00;;
2362;SDS011;64265;51.664;7.626;2023-08-07T02:17:16;1.37;;;1.13;;
2362;SDS011;64265;51.664;7.626;2023-08-07T02:19:43;1.40;;;1.17;;
2362;SDS011;64265;51.664;7.626;2023-08-07T02:22:09;1.20;;;1.10;;
2362;SDS011;64265;51.664;7.626;2023-08-07T02:24:36;1.30;;;1.20;;
2362;SDS011;64265;51.664;7.626;2023-08-07T02:27:03;1.33;;;1.20;;
2362;SDS011;64265;51.664;7.626;2023-08-07T02:29:31;1.63;;;1.10;;
2362;SDS011;64265;51.664;7.626;2023-08-07T02:31:59;1.40;;;1.10;;
2362;SDS011;64265;51.664;7.626;2023-08-07T02:34:25;1.20;;;1.00;;
2362;SDS011;64265;51.664;7.626;2023-08-07T02:36:52;1.03;;;0.93;;
2362;SDS011;64265;51.664;7.626;2023-08-07T02:39:19;1.43;;;1.13;;
2362;SDS011;64265;51.664;7.626;2023-08-07T02:41:45;1.43;;;1.20;;
2362;SDS011;64265;51.664;7.626;2023-08-07T02:44:12;1.30;;;1.20;;
2362;SDS011;64265;51.664;7.626;2023-08-07T02:46:40;1.97;;;1.00;;
2362;SDS011;64265;51.664;7.626;2023-08-07T02:49:07;1.00;;;0.90;;
2362;SDS011;64265;51.664;7.626;2023-08-07T02:51:34;1.13;;;0.93;;
2362;SDS011;64265;51.664;7.626;2023-08-07T02:54:00;1.10;;;0.93;;
2362;SDS011;64265;51.664;7.626;2023-08-07T02:56:27;1.30;;;1.07;;
2362;SDS011;64265;51.664;7.626;2023-08-07T02:58:54;1.10;;;1.00;;
2362;SDS011;64265;51.664;7.626;2023-08-07T03:01:23;1.20;;;1.00;;
2362;SDS011;64265;51.664;7.626;2023-08-07T03:03:51;1.47;;;1.33;;
2362;SDS011;64265;51.664;7.626;2023-08-07T03:06:17;1.20;;;1.10;;
2362;SDS011;64265;51.664;7.626;2023-08-07T03:08:44;4.23;;;1.10;;
2362;SDS011;64265;51.664;7.626;2023-08-07T03:11:11;1.67;;;1.00;;
2362;SDS011;64265;51.664;7.626;2023-08-07T03:13:37;1.33;;;1.10;;
2362;SDS011;64265;51.664;7.626;2023-08-07T03:16:04;2.00;;;1.40;;
2362;SDS011;64265;51.664;7.626;2023-08-07T03:18:32;1.30;;;1.20;;
2362;SDS011;64265;51.664;7.626;2023-08-07T03:21:01;1.27;;;1.00;;
2362;SDS011;64265;51.664;7.626;2023-08-07T03:23:27;1.13;;;1.03;;
2362;SDS011;64265;51.664;7.626;2023-08-07T03:26:01;1.70;;;1.40;;
2362;SDS011;64265;51.664;7.626;2023-08-07T03:28:28;1.00;;;0.90;;
2362;SDS011;64265;51.664;7.626;2023-08-07T03:30:55;1.10;;;1.00;;
2362;SDS011;64265;51.664;7.626;2023-08-07T03:33:22;1.30;;;1.20;;
2362;SDS011;64265;51.664;7.626;2023-08-07T03:35:48;1.60;;;1.00;;
2362;SDS011;64265;51.664;7.626;2023-08-07T03:38:16;1.20;;;1.10;;
2362;SDS011;64265;51.664;7.626;2023-08-07T03:40:43;1.30;;;1.00;;
2362;SDS011;64265;51.664;7.626;2023-08-07T03:43:10;2.07;;;1.10;;
2362;SDS011;64265;51.664;7.626;2023-08-07T03:45:37;1.40;;;1.30;;
2362;SDS011;64265;51.664;7.626;2023-08-07T03:48:04;1.40;;;1.00;;
2362;SDS011;64265;51.664;7.626;2023-08-07T03:50:31;1.20;;;1.00;;
2362;SDS011;64265;51.664;7.626;2023-08-07T03:52:59;1.30;;;1.13;;
2362;SDS011;64265;51.664;7.626;2023-08-07T03:55:28;1.17;;;1.07;;
2362;SDS011;64265;51.664;7.626;2023-08-07T03:57:54;1.30;;;1.10;;
2362;SDS011;64265;51.664;7.626;2023-08-07T04:00:21;1.17;;;1.00;;
2362;SDS011;64265;51.664;7.626;2023-08-07T04:02:48;1.10;;;0.90;;
2362;SDS011;64265;51.664;7.626;2023-08-07T04:05:15;1.57;;;1.20;;
2362;SDS011;64265;51.664;7.626;2023-08-07T04:07:41;1.17;;;1.00;;
2362;SDS011;64265;51.664;7.626;2023-08-07T04:10:08;1.43;;;1.23;;
2362;SDS011;64265;51.664;7.626;2023-08-07T04:12:36;1.20;;;1.03;;
2362;SDS011;64265;51.664;7.626;2023-08-07T04:15:03;1.27;;;0.83;;
2362;SDS011;64265;51.664;7.626;2023-08-07T04:17:31;1.10;;;0.90;;
2362;SDS011;64265;51.664;7.626;2023-08-07T04:19:58;1.63;;;1.20;;
2362;SDS011;64265;51.664;7.626;2023-08-07T04:22:25;1.50;;;1.27;;
2362;SDS011;64265;51.664;7.626;2023-08-07T04:24:51;1.73;;;1.03;;
2362;SDS011;64265;51.664;7.626;2023-08-07T04:27:18;1.30;;;1.20;;
2362;SDS011;64265;51.664;7.626;2023-08-07T04:29:46;1.13;;;1.00;;
2362;SDS011;64265;51.664;7.626;2023-08-07T04:32:13;1.67;;;1.07;;
2362;SDS011;64265;51.664;7.626;2023-08-07T04:34:39;1.73;;;1.50;;
2362;SDS011;64265;51.664;7.626;2023-08-07T04:37:06;1.30;;;1.17;;
2362;SDS011;64265;51.664;7.626;2023-08-07T04:39:33;1.63;;;1.17;;
2362;SDS011;64265;51.664;7.626;2023-08-07T04:42:00;1.53;;;1.27;;
2362;SDS011;64265;51.664;7.626;2023-08-07T04:44:27;1.20;;;1.00;;
2362;SDS011;64265;51.664;7.626;2023-08-07T04:46:55;3.95;;;1.30;;
2362;SDS011;64265;51.664;7.626;2023-08-07T04:49:22;1.17;;;0.90;;
2362;SDS011;64265;51.664;7.626;2023-08-07T04:51:49;1.10;;;1.00;;
2362;SDS011;64265;51.664;7.626;2023-08-07T04:54:15;1.10;;;0.90;;
2362;SDS011;64265;51.664;7.626;2023-08-07T04:56:42;1.00;;;0.90;;
2362;SDS011;64265;51.664;7.626;2023-08-07T04:59:09;1.20;;;0.93;;
2362;SDS011;64265;51.664;7.626;2023-08-07T05:01:36;1.30;;;1.00;;
2362;SDS011;64265;51.664;7.626;2023-08-07T05:04:04;1.33;;;1.10;;
2362;SDS011;64265;51.664;7.626;2023-08-07T05:06:31;1.00;;;0.80;;
2362;SDS011;64265;51.664;7.626;2023-08-07T05:08:58;1.40;;;1.30;;
2362;SDS011;64265;51.664;7.626;2023-08-07T05:11:25;1.40;;;0.80;;
2362;SDS011;64265;51.664;7.626;2023-08-07T05:13:51;1.17;;;0.87;;
2362;SDS011;64265;51.664;7.626;2023-08-07T05:16:18;1.30;;;1.10;;
2362;SDS011;64265;51.664;7.626;2023-08-07T05:18:45;1.10;;;0.90;;
2362;SDS011;64265;51.664;7.626;2023-08-07T05:21:13;1.43;;;1.20;;
2362;SDS011;64265;51.664;7.626;2023-08-07T05:23:39;1.10;;;0.90;;
2362;SDS011;64265;51.664;7.626;2023-08-07T05:26:06;1.40;;;1.03;;
2362;SDS011;64265;51.664;7.626;2023-08-07T05:28:33;1.10;;;1.00;;
2362;SDS011;64265;51.664;7.626;2023-08-07T05:30:59;1.30;;;1.03;;
2362;SDS011;64265;51.664;7.626;2023-08-07T05:33:26;1.10;;;0.90;;
2362;SDS011;64265;51.664;7.626;2023-08-07T05:35:53;1.10;;;0.93;;
2362;SDS011;64265;51.664;7.626;2023-08-07T05:38:21;1.30;;;0.90;;
2362;SDS011;64265;51.664;7.626;2023-08-07T05:40:48;1.10;;;0.90;;
2362;SDS011;64265;51.664;7.626;2023-08-07T05:43:16;1.20;;;1.00;;
2362;SDS011;64265;51.664;7.626;2023-08-07T05:45:42;1.60;;;0.93;;
2362;SDS011;64265;51.664;7.626;2023-08-07T05:48:11;1.30;;;1.07;;
2362;SDS011;64265;51.664;7.626;2023-08-07T05:50:38;1.20;;;1.00;;
2362;SDS011;64265;51.664;7.626;2023-08-07T05:53:04;1.07;;;0.90;;
2362;SDS011;64265;51.664;7.626;2023-08-07T05:55:33;1.20;;;0.90;;
2362;SDS011;64265;51.664;7.626;2023-08-07T05:57:59;1.00;;;0.87;;
2362;SDS011;64265;51.664;7.626;2023-08-07T06:00:26;1.50;;;1.30;;
2362;SDS011;64265;51.664;7.626;2023-08-07T06:02:53;1.30;;;0.90;;
2362;SDS011;64265;51.664;7.626;2023-08-07T06:05:20;1.20;;;0.80;;
2362;SDS011;64265;51.664;7.626;2023-08-07T06:07:46;1.03;;;0.90;;
2362;SDS011;64265;51.664;7.626;2023-08-07T06:10:13;1.20;;;1.00;;
2362;SDS011;64265;51.664;7.626;2023-08-07T06:12:41;1.73;;;1.20;;
2362;SDS011;64265;51.664;7.626;2023-08-07T06:15:08;1.10;;;0.80;;
2362;SDS011;64265;51.664;7.626;2023-08-07T06:17:35;1.27;;;1.17;;
2362;SDS011;64265;51.664;7.626;2023-08-07T06:20:04;1.50;;;1.00;;
2362;SDS011;64265;51.664;7.626;2023-08-07T06:22:34;1.30;;;1.20;;
2362;SDS011;64265;51.664;7.626;2023-08-07T06:25:00;1.30;;;1.13;;
2362;SDS011;64265;51.664;7.626;2023-08-07T06:27:27;1.20;;;1.10;;
2362;SDS011;64265;51.664;7.626;2023-08-07T06:29:56;1.20;;;0.90;;
2362;SDS011;64265;51.664;7.626;2023-08-07T06:32:24;1.43;;;0.90;;
2362;SDS011;64265;51.664;7.626;2023-08-07T06:34:51;1.48;;;1.08;;
2362;SDS011;64265;51.664;7.626;2023-08-07T06:37:18;1.20;;;1.05;;
2362;SDS011;64265;51.664;7.626;2023-08-07T06:39:44;1.00;;;0.83;;
2362;SDS011;64265;51.664;7.626;2023-08-07T06:42:12;1.10;;;0.93;;
2362;SDS011;64265;51.664;7.626;2023-08-07T06:44:38;1.10;;;0.90;;
2362;SDS011;64265;51.664;7.626;2023-08-07T06:47:07;1.10;;;0.80;;
2362;SDS011;64265;51.664;7.626;2023-08-07T06:49:34;1.10;;;0.80;;
2362;SDS011;64265;51.664;7.626;2023-08-07T06:52:01;1.50;;;0.80;;
2362;SDS011;64265;51.664;7.626;2023-08-07T06:54:28;1.30;;;1.10;;
2362;SDS011;64265;51.664;7.626;2023-08-07T06:56:54;1.95;;;1.23;;
2362;SDS011;64265;51.664;7.626;2023-08-07T06:59:21;1.90;;;1.10;;
2362;SDS011;64265;51.664;7.626;2023-08-07T07:01:48;1.30;;;1.00;;
2362;SDS011;64265;51.664;7.626;2023-08-07T07:04:17;2.17;;;1.07;;
2362;SDS011;64265;51.664;7.626;2023-08-07T07:06:44;1.20;;;1.10;;
2362;SDS011;64265;51.664;7.626;2023-08-07T07:09:10;1.30;;;1.13;;
2362;SDS011;64265;51.664;7.626;2023-08-07T07:11:41;1.87;;;0.90;;
2362;SDS011;64265;51.664;7.626;2023-08-07T07:14:08;1.40;;;1.20;;
2362;SDS011;64265;51.664;7.626;2023-08-07T07:16:35;2.17;;;1.05;;
2362;SDS011;64265;51.664;7.626;2023-08-07T07:19:02;2.13;;;1.70;;
2362;SDS011;64265;51.664;7.626;2023-08-07T07:21:31;1.40;;;1.10;;
2362;SDS011;64265;51.664;7.626;2023-08-07T07:23:59;2.05;;;1.10;;
2362;SDS011;64265;51.664;7.626;2023-08-07T07:26:25;2.83;;;1.30;;
2362;SDS011;64265;51.664;7.626;2023-08-07T07:28:55;2.15;;;1.10;;
2362;SDS011;64265;51.664;7.626;2023-08-07T07:31:22;4.10;;;1.13;;
2362;SDS011;64265;51.664;7.626;2023-08-07T07:33:49;1.83;;;1.10;;
2362;SDS011;64265;51.664;7.626;2023-08-07T07:36:16;3.15;;;1.40;;
2362;SDS011;64265;51.664;7.626;2023-08-07T07:38:46;1.27;;;1.10;;
2362;SDS011;64265;51.664;7.626;2023-08-07T07:41:13;1.90;;;1.30;;
2362;SDS011;64265;51.664;7.626;2023-08-07T07:43:40;1.27;;;1.10;;
2362;SDS011;64265;51.664;7.626;2023-08-07T07:46:07;1.85;;;1.30;;
2362;SDS011;64265;51.664;7.626;2023-08-07T07:48:34;2.85;;;1.40;;
2362;SDS011;64265;51.664;7.626;2023-08-07T07:51:01;1.67;;;1.30;;
2362;SDS011;64265;51.664;7.626;2023-08-07T07:53:28;2.28;;;1.20;;
2362;SDS011;64265;51.664;7.626;2023-08-07T07:55:56;1.73;;;1.10;;
2362;SDS011;64265;51.664;7.626;2023-08-07T07:58:23;3.57;;;1.77;;
2362;SDS011;64265;51.664;7.626;2023-08-07T08:00:50;2.40;;;1.50;;
2362;SDS011;64265;51.664;7.626;2023-08-07T08:03:18;5.00;;;1.20;;
2362;SDS011;64265;51.664;7.626;2023-08-07T08:05:45;1.40;;;1.10;;
2362;SDS011;64265;51.664;7.626;2023-08-07T08:08:14;1.23;;;1.00;;
2362;SDS011;64265;51.664;7.626;2023-08-07T08:10:42;1.90;;;1.08;;
2362;SDS011;64265;51.664;7.626;2023-08-07T08:13:10;1.40;;;1.10;;
2362;SDS011;64265;51.664;7.626;2023-08-07T08:15:37;2.57;;;1.40;;
2362;SDS011;64265;51.664;7.626;2023-08-07T08:18:03;2.57;;;1.30;;
2362;SDS011;64265;51.664;7.626;2023-08-07T08:20:30;2.33;;;1.10;;
2362;SDS011;64265;51.664;7.626;2023-08-07T08:22:58;7.68;;;1.63;;
2362;SDS011;64265;51.664;7.626;2023-08-07T08:25:24;1.70;;;1.23;;
2362;SDS011;64265;51.664;7.626;2023-08-07T08:27:51;2.17;;;1.13;;
2362;SDS011;64265;51.664;7.626;2023-08-07T08:30:19;2.13;;;1.20;;
2362;SDS011;64265;51.664;7.626;2023-08-07T08:32:46;1.95;;;1.33;;
2362;SDS011;64265;51.664;7.626;2023-08-07T08:35:13;2.55;;;1.55;;
2362;SDS011;64265;51.664;7.626;2023-08-07T08:37:40;1.73;;;1.20;;
2362;SDS011;64265;51.664;7.626;2023-08-07T08:40:07;1.67;;;1.30;;
2362;SDS011;64265;51.664;7.626;2023-08-07T08:42:37;1.90;;;1.30;;
2362;SDS011;64265;51.664;7.626;2023-08-07T08:45:06;2.08;;;1.10;;
2362;SDS011;64265;51.664;7.626;2023-08-07T08:47:37;2.17;;;0.90;;
2362;SDS011;64265;51.664;7.626;2023-08-07T08:50:06;4.43;;;1.87;;
2362;SDS011;64265;51.664;7.626;2023-08-07T08:52:34;2.42;;;1.80;;
2362;SDS011;64265;51.664;7.626;2023-08-07T08:55:03;3.70;;;2.40;;
2362;SDS011;64265;51.664;7.626;2023-08-07T08:57:31;3.20;;;1.90;;
2362;SDS011;64265;51.664;7.626;2023-08-07T08:59:59;7.35;;;3.95;;
2362;SDS011;64265;51.664;7.626;2023-08-07T09:02:29;8.23;;;4.80;;
2362;SDS011;64265;51.664;7.626;2023-08-07T09:04:57;11.20;;;6.53;;
2362;SDS011;64265;51.664;7.626;2023-08-07T09:07:24;25.47;;;14.13;;
2362;SDS011;64265;51.664;7.626;2023-08-07T09:09:53;31.50;;;18.87;;
2362;SDS011;64265;51.664;7.626;2023-08-07T09:12:23;46.17;;;25.45;;
2362;SDS011;64265;51.664;7.626;2023-08-07T09:14:55;41.67;;;22.75;;
2362;SDS011;64265;51.664;7.626;2023-08-07T09:17:23;37.30;;;23.80;;
2362;SDS011;64265;51.664;7.626;2023-08-07T09:19:52;45.17;;;26.90;;
2362;SDS011;64265;51.664;7.626;2023-08-07T09:22:20;61.33;;;33.50;;
2362;SDS011;64265;51.664;7.626;2023-08-07T09:24:47;60.73;;;33.73;;
2362;SDS011;64265;51.664;7.626;2023-08-07T09:27:14;67.67;;;34.13;;
2362;SDS011;64265;51.664;7.626;2023-08-07T09:29:41;63.97;;;34.67;;
2362;SDS011;64265;51.664;7.626;2023-08-07T09:32:11;69.70;;;36.87;;
2362;SDS011;64265;51.664;7.626;2023-08-07T09:34:39;53.80;;;30.60;;
2362;SDS011;64265;51.664;7.626;2023-08-07T09:37:06;54.30;;;29.07;;
2362;SDS011;64265;51.664;7.626;2023-08-07T09:39:35;55.20;;;30.37;;
2362;SDS011;64265;51.664;7.626;2023-08-07T09:42:02;43.57;;;27.83;;
2362;SDS011;64265;51.664;7.626;2023-08-07T09:44:34;51.90;;;28.50;;
2362;SDS011;64265;51.664;7.626;2023-08-07T09:47:08;48.13;;;27.77;;
2362;SDS011;64265;51.664;7.626;2023-08-07T09:49:38;49.03;;;27.70;;
2362;SDS011;64265;51.664;7.626;2023-08-07T09:52:05;54.63;;;28.70;;
2362;SDS011;64265;51.664;7.626;2023-08-07T09:54:34;45.20;;;26.60;;
2362;SDS011;64265;51.664;7.626;2023-08-07T09:57:02;49.40;;;28.40;;
2362;SDS011;64265;51.664;7.626;2023-08-07T09:59:30;47.30;;;25.63;;
2362;SDS011;64265;51.664;7.626;2023-08-07T10:01:58;38.47;;;24.63;;
2362;SDS011;64265;51.664;7.626;2023-08-07T10:04:27;42.00;;;23.70;;
2362;SDS011;64265;51.664;7.626;2023-08-07T10:06:54;35.90;;;22.83;;
2362;SDS011;64265;51.664;7.626;2023-08-07T10:09:21;32.17;;;17.80;;
2362;SDS011;64265;51.664;7.626;2023-08-07T10:11:50;38.60;;;21.00;;
2362;SDS011;64265;51.664;7.626;2023-08-07T10:14:17;31.77;;;20.73;;
2362;SDS011;64265;51.664;7.626;2023-08-07T10:16:45;33.97;;;20.73;;
2362;SDS011;64265;51.664;7.626;2023-08-07T10:19:12;39.03;;;20.27;;
2362;SDS011;64265;51.664;7.626;2023-08-07T10:21:39;39.13;;;21.07;;
2362;SDS011;64265;51.664;7.626;2023-08-07T10:24:07;36.10;;;19.33;;
2362;SDS011;64265;51.664;7.626;2023-08-07T10:26:37;33.63;;;21.07;;
2362;SDS011;64265;51.664;7.626;2023-08-07T10:29:09;31.90;;;18.80;;
2362;SDS011;64265;51.664;7.626;2023-08-07T10:31:39;33.40;;;19.80;;
2362;SDS011;64265;51.664;7.626;2023-08-07T10:34:08;29.13;;;18.40;;
2362;SDS011;64265;51.664;7.626;2023-08-07T10:36:35;29.93;;;17.93;;
2362;SDS011;64265;51.664;7.626;2023-08-07T10:39:06;31.90;;;20.23;;
2362;SDS011;64265;51.664;7.626;2023-08-07T10:41:38;24.33;;;16.80;;
2362;SDS011;64265;51.664;7.626;2023-08-07T10:44:11;23.73;;;16.30;;
2362;SDS011;64265;51.664;7.626;2023-08-07T10:46:47;26.20;;;16.40;;
2362;SDS011;64265;51.664;7.626;2023-08-07T10:49:31;28.47;;;16.80;;
2362;SDS011;64265;51.664;7.626;2023-08-07T10:52:02;26.27;;;16.90;;
2362;SDS011;64265;51.664;7.626;2023-08-07T10:54:30;28.73;;;15.90;;
2362;SDS011;64265;51.664;7.626;2023-08-07T10:57:06;22.63;;;14.40;;
2362;SDS011;64265;51.664;7.626;2023-08-07T10:59:38;28.00;;;16.37;;
2362;SDS011;64265;51.664;7.626;2023-08-07T11:02:11;21.93;;;14.77;;
2362;SDS011;64265;51.664;7.626;2023-08-07T11:04:39;23.47;;;13.23;;
2362;SDS011;64265;51.664;7.626;2023-08-07T11:07:06;21.37;;;14.27;;
2362;SDS011;64265;51.664;7.626;2023-08-07T11:09:33;24.77;;;15.90;;
2362;SDS011;64265;51.664;7.626;2023-08-07T11:12:00;22.17;;;13.60;;
2362;SDS011;64265;51.664;7.626;2023-08-07T11:14:27;24.37;;;14.53;;
2362;SDS011;64265;51.664;7.626;2023-08-07T11:16:55;18.57;;;12.53;;
2362;SDS011;64265;51.664;7.626;2023-08-07T11:19:22;18.93;;;13.60;;
2362;SDS011;64265;51.664;7.626;2023-08-07T11:21:49;23.23;;;13.20;;
2362;SDS011;64265;51.664;7.626;2023-08-07T11:24:16;18.50;;;12.97;;
2362;SDS011;64265;51.664;7.626;2023-08-07T11:26:45;18.90;;;11.63;;
2362;SDS011;64265;51.664;7.626;2023-08-07T11:29:15;21.07;;;12.00;;
2362;SDS011;64265;51.664;7.626;2023-08-07T11:31:42;19.60;;;12.23;;
2362;SDS011;64265;51.664;7.626;2023-08-07T11:34:10;16.20;;;11.27;;
2362;SDS011;64265;51.664;7.626;2023-08-07T11:36:40;20.03;;;11.20;;
2362;SDS011;64265;51.664;7.626;2023-08-07T11:39:07;19.43;;;11.70;;
2362;SDS011;64265;51.664;7.626;2023-08-07T11:41:34;15.60;;;11.13;;
2362;SDS011;64265;51.664;7.626;2023-08-07T11:44:01;16.23;;;10.97;;
2362;SDS011;64265;51.664;7.626;2023-08-07T11:46:28;20.40;;;11.27;;
2362;SDS011;64265;51.664;7.626;2023-08-07T11:48:55;16.07;;;10.73;;
2362;SDS011;64265;51.664;7.626;2023-08-07T11:51:24;12.83;;;9.30;;
2362;SDS011;64265;51.664;7.626;2023-08-07T11:53:50;17.63;;;9.40;;
2362;SDS011;64265;51.664;7.626;2023-08-07T11:56:21;15.37;;;10.90;;
2362;SDS011;64265;51.664;7.626;2023-08-07T11:58:48;15.40;;;10.13;;
2362;SDS011;64265;51.664;7.626;2023-08-07T12:01:18;16.53;;;10.23;;
2362;SDS011;64265;51.664;7.626;2023-08-07T12:03:49;16.80;;;10.00;;
2362;SDS011;64265;51.664;7.626;2023-08-07T12:06:18;12.70;;;9.73;;
2362;SDS011;64265;51.664;7.626;2023-08-07T12:08:48;24.07;;;10.43;;
2362;SDS011;64265;51.664;7.626;2023-08-07T12:11:16;31.47;;;11.50;;
2362;SDS011;64265;51.664;7.626;2023-08-07T12:13:43;23.47;;;10.33;;
2362;SDS011;64265;51.664;7.626;2023-08-07T12:16:11;25.00;;;9.20;;
2362;SDS011;64265;51.664;7.626;2023-08-07T12:18:42;16.37;;;8.67;;
2362;SDS011;64265;51.664;7.626;2023-08-07T12:21:10;21.93;;;10.37;;
2362;SDS011;64265;51.664;7.626;2023-08-07T12:23:37;27.87;;;9.93;;
2362;SDS011;64265;51.664;7.626;2023-08-07T12:26:05;17.43;;;8.67;;
2362;SDS011;64265;51.664;7.626;2023-08-07T12:28:32;30.50;;;10.30;;
2362;SDS011;64265;51.664;7.626;2023-08-07T12:30:59;20.00;;;9.50;;
2362;SDS011;64265;51.664;7.626;2023-08-07T12:33:25;11.67;;;4.50;;
2362;SDS011;64265;51.664;7.626;2023-08-07T12:35:52;8.33;;;2.70;;
2362;SDS011;64265;51.664;7.626;2023-08-07T12:38:19;4.97;;;2.87;;
2362;SDS011;64265;51.664;7.626;2023-08-07T12:40:46;4.83;;;2.87;;
2362;SDS011;64265;51.664;7.626;2023-08-07T12:43:14;7.07;;;2.93;;
2362;SDS011;64265;51.664;7.626;2023-08-07T12:45:41;4.33;;;2.30;;
2362;SDS011;64265;51.664;7.626;2023-08-07T12:48:08;6.03;;;2.70;;
2362;SDS011;64265;51.664;7.626;2023-08-07T12:50:35;4.80;;;2.27;;
2362;SDS011;64265;51.664;7.626;2023-08-07T12:53:02;3.50;;;2.30;;
2362;SDS011;64265;51.664;7.626;2023-08-07T12:55:28;5.67;;;2.40;;
2362;SDS011;64265;51.664;7.626;2023-08-07T12:57:55;4.40;;;2.40;;
2362;SDS011;64265;51.664;7.626;2023-08-07T13:00:24;8.97;;;1.80;;
2362;SDS011;64265;51.664;7.626;2023-08-07T13:02:51;7.23;;;2.27;;
2362;SDS011;64265;51.664;7.626;2023-08-07T13:05:20;6.90;;;2.40;;
2362;SDS011;64265;51.664;7.626;2023-08-07T13:07:48;3.17;;;1.60;;
2362;SDS011;64265;51.664;7.626;2023-08-07T13:10:15;3.43;;;2.10;;
2362;SDS011;64265;51.664;7.626;2023-08-07T13:12:43;5.43;;;1.77;;
2362;SDS011;64265;51.664;7.626;2023-08-07T13:15:12;4.20;;;2.00;;
2362;SDS011;64265;51.664;7.626;2023-08-07T13:17:41;8.90;;;2.57;;
2362;SDS011;64265;51.664;7.626;2023-08-07T13:20:09;3.40;;;1.93;;
2362;SDS011;64265;51.664;7.626;2023-08-07T13:22:38;3.93;;;2.20;;
2362;SDS011;64265;51.664;7.626;2023-08-07T13:25:05;7.23;;;1.90;;
2362;SDS011;64265;51.664;7.626;2023-08-07T13:27:32;3.67;;;1.70;;
2362;SDS011;64265;51.664;7.626;2023-08-07T13:30:00;5.33;;;2.37;;
2362;SDS011;64265;51.664;7.626;2023-08-07T13:32:26;4.00;;;1.70;;
2362;SDS011;64265;51.664;7.626;2023-08-07T13:34:55;4.60;;;2.00;;
2362;SDS011;64265;51.664;7.626;2023-08-07T13:37:21;2.57;;;2.00;;
2362;SDS011;64265;51.664;7.626;2023-08-07T13:39:48;4.43;;;1.63;;
2362;SDS011;64265;51.664;7.626;2023-08-07T13:42:17;4.97;;;2.33;;
2362;SDS011;64265;51.664;7.626;2023-08-07T13:44:43;3.97;;;1.90;;
2362;SDS011;64265;51.664;7.626;2023-08-07T13:47:10;3.90;;;2.20;;
2362;SDS011;64265;51.664;7.626;2023-08-07T13:49:37;5.90;;;1.90;;
2362;SDS011;64265;51.664;7.626;2023-08-07T13:52:06;4.57;;;1.97;;
2362;SDS011;64265;51.664;7.626;2023-08-07T13:54:33;3.23;;;2.70;;
2362;SDS011;64265;51.664;7.626;2023-08-07T13:57:00;5.20;;;2.27;;
2362;SDS011;64265;51.664;7.626;2023-08-07T13:59:26;6.90;;;2.10;;
2362;SDS011;64265;51.664;7.626;2023-08-07T14:01:53;6.97;;;2.30;;
2362;SDS011;64265;51.664;7.626;2023-08-07T14:04:21;1.97;;;1.50;;
2362;SDS011;64265;51.664;7.626;2023-08-07T14:06:48;5.60;;;2.00;;
2362;SDS011;64265;51.664;7.626;2023-08-07T14:09:16;7.00;;;2.30;;
2362;SDS011;64265;51.664;7.626;2023-08-07T14:11:43;8.80;;;2.40;;
2362;SDS011;64265;51.664;7.626;2023-08-07T14:14:10;3.67;;;1.80;;
2362;SDS011;64265;51.664;7.626;2023-08-07T14:16:37;3.87;;;2.07;;
2362;SDS011;64265;51.664;7.626;2023-08-07T14:19:03;3.63;;;2.03;;
2362;SDS011;64265;51.664;7.626;2023-08-07T14:21:30;4.20;;;2.80;;
2362;SDS011;64265;51.664;7.626;2023-08-07T14:23:57;3.10;;;2.13;;
2362;SDS011;64265;51.664;7.626;2023-08-07T14:26:25;2.90;;;1.73;;
2362;SDS011;64265;51.664;7.626;2023-08-07T14:28:52;4.20;;;2.20;;
2362;SDS011;64265;51.664;7.626;2023-08-07T14:31:18;4.23;;;1.90;;
2362;SDS011;64265;51.664;7.626;2023-08-07T14:33:45;2.47;;;1.80;;
2362;SDS011;64265;51.664;7.626;2023-08-07T14:36:12;6.33;;;2.90;;
2362;SDS011;64265;51.664;7.626;2023-08-07T14:38:40;7.37;;;2.60;;
2362;SDS011;64265;51.664;7.626;2023-08-07T14:41:06;4.43;;;2.07;;
2362;SDS011;64265;51.664;7.626;2023-08-07T14:43:35;4.23;;;2.07;;
2362;SDS011;64265;51.664;7.626;2023-08-07T14:46:01;3.73;;;1.90;;
2362;SDS011;64265;51.664;7.626;2023-08-07T14:48:28;4.47;;;1.90;;
2362;SDS011;64265;51.664;7.626;2023-08-07T14:50:55;5.77;;;1.73;;
2362;SDS011;64265;51.664;7.626;2023-08-07T14:53:22;2.57;;;1.83;;
2362;SDS011;64265;51.664;7.626;2023-08-07T14:55:50;4.03;;;2.07;;
2362;SDS011;64265;51.664;7.626;2023-08-07T14:58:17;4.30;;;2.27;;